createdAt,value
2023-02-13T00:02:05.556Z,11.83
2023-02-13T00:04:35.137Z,12.27
2023-02-13T00:07:03.936Z,11.47
2023-02-13T00:09:31.945Z,12.30
2023-02-13T00:12:00.180Z,13.73
2023-02-13T00:14:28.517Z,12.47
2023-02-13T00:16:56.529Z,11.90
2023-02-13T00:19:25.422Z,13.73
2023-02-13T00:21:54.957Z,12.63
2023-02-13T00:24:23.816Z,12.27
2023-02-13T00:26:52.042Z,13.43
2023-02-13T00:29:20.655Z,12.03
2023-02-13T00:31:49.085Z,12.33
2023-02-13T00:34:17.201Z,11.77
2023-02-13T00:36:45.466Z,12.77
2023-02-13T00:39:14.991Z,11.47
2023-02-13T00:41:43.091Z,12.43
2023-02-13T00:44:11.661Z,12.27
2023-02-13T00:46:39.980Z,12.30
2023-02-13T00:49:08.447Z,11.83
2023-02-13T00:51:36.782Z,12.40
2023-02-13T00:54:05.240Z,13.20
2023-02-13T00:56:34.679Z,12.60
2023-02-13T00:59:02.633Z,12.10
2023-02-13T01:01:30.711Z,12.50
2023-02-13T01:03:59.017Z,13.40
2023-02-13T01:06:27.773Z,12.97
2023-02-13T01:08:55.844Z,12.70
2023-02-13T01:11:26.297Z,13.07
2023-02-13T01:13:55.750Z,12.53
2023-02-13T01:16:23.861Z,13.63
2023-02-13T01:18:51.953Z,12.40
2023-02-13T01:21:22.167Z,13.50
2023-02-13T01:23:51.652Z,12.80
2023-02-13T01:26:22.284Z,13.10
2023-02-13T01:28:53.677Z,13.83
2023-02-13T01:31:23.649Z,13.37
2023-02-13T01:33:52.357Z,12.67
2023-02-13T01:36:20.324Z,12.63
2023-02-13T01:38:48.707Z,12.73
2023-02-13T01:41:16.719Z,13.07
2023-02-13T01:43:47.498Z,13.60
2023-02-13T01:46:19.668Z,13.10
2023-02-13T01:48:50.897Z,13.40
2023-02-13T01:51:23.549Z,12.80
2023-02-13T01:53:56.238Z,13.27
2023-02-13T01:56:28.464Z,12.93
2023-02-13T01:59:01.167Z,13.83
2023-02-13T02:01:30.429Z,13.80
2023-02-13T02:04:06.143Z,14.50
2023-02-13T02:06:40.187Z,13.77
2023-02-13T02:09:15.590Z,13.87
2023-02-13T02:11:52.838Z,13.90
2023-02-13T02:14:21.516Z,14.10
2023-02-13T02:16:49.718Z,14.00
2023-02-13T02:19:28.096Z,14.17
2023-02-13T02:22:16.857Z,14.20
2023-02-13T02:25:19.921Z,14.23
2023-02-13T02:28:08.470Z,14.17
2023-02-13T02:31:24.190Z,14.53
2023-02-13T02:34:08.542Z,14.87
2023-02-13T02:36:48.362Z,15.53
2023-02-13T02:39:27.656Z,14.93
2023-02-13T02:42:04.499Z,14.63
2023-02-13T02:44:36.334Z,15.17
2023-02-13T02:47:29.145Z,14.53
2023-02-13T02:50:18.160Z,14.03
2023-02-13T02:52:58.431Z,15.07
2023-02-13T02:55:36.904Z,13.93
2023-02-13T02:58:33.428Z,14.80
2023-02-13T03:01:21.573Z,14.03
2023-02-13T03:04:08.041Z,12.90
2023-02-13T03:06:42.153Z,14.17
2023-02-13T03:09:34.135Z,12.77
2023-02-13T03:12:21.873Z,13.10
2023-02-13T03:14:50.088Z,12.17
2023-02-13T03:17:37.735Z,13.33
2023-02-13T03:20:36.133Z,13.23
2023-02-13T03:23:18.649Z,13.00
2023-02-13T03:26:07.242Z,12.70
2023-02-13T03:29:10.302Z,12.90
2023-02-13T03:31:47.755Z,12.57
2023-02-13T03:34:20.526Z,11.77
2023-02-13T03:37:09.678Z,11.87
2023-02-13T03:39:49.312Z,12.63
2023-02-13T03:42:24.729Z,12.53
2023-02-13T03:45:11.254Z,11.03
2023-02-13T03:47:40.536Z,11.47
2023-02-13T03:50:09.978Z,11.00
2023-02-13T03:52:42.772Z,10.63
2023-02-13T03:55:32.693Z,10.40
2023-02-13T03:58:22.072Z,11.33
2023-02-13T04:00:54.054Z,11.83
2023-02-13T04:03:27.443Z,10.93
2023-02-13T04:06:00.663Z,10.60
2023-02-13T04:08:28.850Z,11.57
2023-02-13T04:11:07.199Z,10.20
2023-02-13T04:13:37.624Z,9.90
2023-02-13T04:16:12.839Z,10.83
2023-02-13T04:18:41.337Z,10.30
2023-02-13T04:21:09.441Z,10.53
2023-02-13T04:23:37.855Z,9.80
2023-02-13T04:26:15.410Z,9.70
2023-02-13T04:28:43.336Z,10.60
2023-02-13T04:31:11.942Z,10.90
2023-02-13T04:33:40.015Z,9.87
2023-02-13T04:36:08.710Z,10.00
2023-02-13T04:38:36.724Z,10.23
2023-02-13T04:41:04.733Z,10.30
2023-02-13T04:43:34.305Z,10.37
2023-02-13T04:46:02.511Z,10.40
2023-02-13T04:48:30.833Z,10.50
2023-02-13T04:50:59.427Z,10.67
2023-02-13T04:53:27.692Z,9.80
2023-02-13T04:55:55.732Z,10.23
2023-02-13T04:58:23.951Z,10.27
2023-02-13T05:00:53.566Z,10.83
2023-02-13T05:03:21.898Z,10.63
2023-02-13T05:05:50.258Z,9.93
2023-02-13T05:08:18.468Z,9.47
2023-02-13T05:10:46.774Z,9.93
2023-02-13T05:13:16.880Z,9.70
2023-02-13T05:15:45.262Z,10.07
2023-02-13T05:18:15.632Z,10.07
2023-02-13T05:20:43.740Z,10.43
2023-02-13T05:23:23.228Z,11.87
2023-02-13T05:25:51.968Z,9.33
2023-02-13T05:28:37.712Z,9.60
2023-02-13T05:31:06.402Z,8.97
2023-02-13T05:33:36.314Z,10.10
2023-02-13T05:36:04.663Z,9.27
2023-02-13T05:38:32.681Z,9.40
2023-02-13T05:41:01.296Z,9.30
2023-02-13T05:43:29.451Z,9.03
2023-02-13T05:46:04.988Z,9.63
2023-02-13T05:48:33.189Z,9.43
2023-02-13T05:51:02.986Z,10.17
2023-02-13T05:53:31.044Z,9.30
2023-02-13T05:55:59.056Z,9.73
2023-02-13T05:58:27.135Z,8.87
2023-02-13T06:00:58.638Z,9.43
2023-02-13T06:03:27.799Z,10.07
2023-02-13T06:05:56.647Z,9.23
2023-02-13T06:08:27.361Z,9.00
2023-02-13T06:10:55.820Z,8.10
2023-02-13T06:13:24.137Z,9.20
2023-02-13T06:15:52.496Z,8.93
2023-02-13T06:18:20.570Z,9.80
2023-02-13T06:20:48.507Z,8.77
2023-02-13T06:23:18.784Z,8.57
2023-02-13T06:25:48.244Z,8.93
2023-02-13T06:28:16.601Z,8.33
2023-02-13T06:30:44.783Z,8.73
2023-02-13T06:33:12.961Z,9.77
2023-02-13T06:35:41.116Z,11.70
2023-02-13T06:38:09.248Z,8.97
2023-02-13T06:40:37.335Z,8.80
2023-02-13T06:43:06.920Z,9.57
2023-02-13T06:45:35.017Z,10.60
2023-02-13T06:48:03.155Z,9.20
2023-02-13T06:50:32.441Z,9.47
2023-02-13T06:53:01.196Z,8.93
2023-02-13T06:55:29.923Z,10.53
2023-02-13T06:57:58.026Z,9.97
2023-02-13T07:00:27.862Z,10.70
2023-02-13T07:02:55.988Z,12.20
2023-02-13T07:05:24.004Z,9.57
2023-02-13T07:07:52.145Z,10.23
2023-02-13T07:10:20.478Z,9.23
2023-02-13T07:13:03.643Z,10.60
2023-02-13T07:15:35.806Z,9.60
2023-02-13T07:18:05.860Z,8.37
2023-02-13T07:20:34.549Z,8.47
2023-02-13T07:23:03.718Z,8.87
2023-02-13T07:25:33.039Z,9.23
2023-02-13T07:28:04.889Z,8.80
2023-02-13T07:30:36.036Z,10.33
2023-02-13T07:33:04.987Z,9.47
2023-02-13T07:35:33.135Z,10.13
2023-02-13T07:38:01.311Z,9.50
2023-02-13T07:40:29.659Z,9.87
2023-02-13T07:43:01.114Z,10.97
2023-02-13T07:45:29.169Z,11.60
2023-02-13T07:47:59.942Z,11.97
2023-02-13T07:50:28.561Z,10.13
2023-02-13T07:52:56.793Z,10.23
2023-02-13T07:55:25.061Z,10.80
2023-02-13T07:57:53.367Z,10.60
2023-02-13T08:00:22.464Z,10.23
2023-02-13T08:02:50.565Z,11.20
2023-02-13T08:05:20.661Z,12.20
2023-02-13T08:07:48.783Z,9.73
2023-02-13T08:10:34.770Z,11.17
2023-02-13T08:13:02.854Z,9.80
2023-02-13T08:15:30.942Z,10.70
2023-02-13T08:17:59.233Z,10.47
2023-02-13T08:20:29.013Z,10.03
2023-02-13T08:23:07.203Z,10.67
2023-02-13T08:25:36.316Z,10.70
2023-02-13T08:28:04.541Z,10.97
2023-02-13T08:30:35.773Z,11.00
2023-02-13T08:33:04.588Z,10.90
2023-02-13T08:35:34.755Z,10.10
2023-02-13T08:38:06.528Z,11.33
2023-02-13T08:40:36.713Z,10.13
2023-02-13T08:43:07.954Z,11.60
2023-02-13T08:45:37.190Z,10.83
2023-02-13T08:48:05.606Z,10.13
2023-02-13T08:50:37.004Z,13.43
2023-02-13T08:53:05.582Z,10.13
2023-02-13T08:55:33.868Z,16.13
2023-02-13T08:58:03.217Z,12.70
2023-02-13T09:00:32.135Z,10.70
2023-02-13T09:03:03.296Z,9.93
2023-02-13T09:05:32.797Z,10.43
2023-02-13T09:08:03.927Z,10.97
2023-02-13T09:10:32.403Z,10.73
2023-02-13T09:13:01.426Z,11.80
2023-02-13T09:15:29.422Z,10.37
2023-02-13T09:17:57.507Z,10.07
2023-02-13T09:20:26.048Z,11.20
2023-02-13T09:22:56.043Z,9.83
2023-02-13T09:25:25.830Z,9.80
2023-02-13T09:27:53.855Z,9.97
2023-02-13T09:30:24.613Z,9.20
2023-02-13T09:32:53.230Z,8.77
2023-02-13T09:35:22.361Z,8.70
2023-02-13T09:37:50.972Z,9.37
2023-02-13T09:40:24.243Z,9.17
2023-02-13T09:42:54.630Z,9.17
2023-02-13T09:45:23.752Z,8.50
2023-02-13T09:47:52.110Z,8.50
2023-02-13T09:50:24.798Z,9.20
2023-02-13T09:52:55.911Z,8.43
2023-02-13T09:55:28.631Z,8.40
2023-02-13T09:58:06.299Z,10.33
2023-02-13T10:00:40.543Z,8.23
2023-02-13T10:03:27.527Z,8.67
2023-02-13T10:06:02.976Z,8.07
2023-02-13T10:08:42.933Z,8.70
2023-02-13T10:11:35.251Z,7.80
2023-02-13T10:14:21.917Z,7.63
2023-02-13T10:16:54.895Z,8.80
2023-02-13T10:19:36.142Z,8.90
2023-02-13T10:22:08.912Z,8.60
2023-02-13T10:24:41.605Z,8.63
2023-02-13T10:27:22.801Z,8.30
2023-02-13T10:30:06.960Z,9.00
2023-02-13T10:32:50.599Z,8.33
2023-02-13T10:35:24.684Z,9.37
2023-02-13T10:38:01.138Z,8.63
2023-02-13T10:40:40.548Z,10.10
2023-02-13T10:43:12.282Z,9.07
2023-02-13T10:46:08.894Z,10.77
2023-02-13T10:48:54.017Z,8.50
2023-02-13T10:51:33.702Z,10.37
2023-02-13T10:54:22.299Z,9.83
2023-02-13T10:56:58.953Z,8.50
2023-02-13T10:59:51.608Z,9.80
2023-02-13T11:02:29.938Z,9.27
2023-02-13T11:05:04.476Z,8.90
2023-02-13T11:07:33.891Z,8.63
2023-02-13T11:10:07.152Z,9.03
2023-02-13T11:12:38.464Z,8.80
2023-02-13T11:15:21.361Z,8.83
2023-02-13T11:17:52.901Z,8.23
2023-02-13T11:20:33.072Z,8.73
2023-02-13T11:23:23.551Z,8.53
2023-02-13T11:26:02.840Z,8.33
2023-02-13T11:28:33.876Z,8.70
2023-02-13T11:31:19.444Z,8.83
2023-02-13T11:33:51.482Z,8.93
2023-02-13T11:36:28.347Z,8.47
2023-02-13T11:39:01.731Z,8.70
2023-02-13T11:41:33.951Z,8.53
2023-02-13T11:44:06.440Z,8.13
2023-02-13T11:46:48.443Z,7.87
2023-02-13T11:49:21.558Z,8.17
2023-02-13T11:51:53.482Z,8.67
2023-02-13T11:54:29.316Z,8.10
2023-02-13T11:57:06.797Z,9.10
2023-02-13T12:02:30.872Z,8.40
2023-02-13T12:05:19.231Z,7.83
2023-02-13T12:07:48.659Z,8.67
2023-02-13T12:10:23.659Z,8.63
2023-02-13T12:12:56.771Z,8.80
2023-02-13T12:15:28.286Z,8.17
2023-02-13T12:18:06.142Z,8.70
2023-02-13T12:20:44.806Z,10.00
2023-02-13T12:23:28.223Z,9.40
2023-02-13T12:26:17.934Z,8.40
2023-02-13T12:29:09.403Z,9.30
2023-02-13T12:31:54.438Z,8.30
2023-02-13T12:34:56.640Z,8.90
2023-02-13T12:37:53.339Z,7.63
2023-02-13T12:44:19.622Z,8.43
2023-02-13T12:46:56.249Z,8.50
2023-02-13T12:49:49.984Z,9.07
2023-02-13T12:52:35.746Z,8.90
2023-02-13T12:55:20.605Z,7.63
2023-02-13T12:58:05.280Z,8.80
2023-02-13T13:00:45.092Z,9.70
2023-02-13T13:03:35.073Z,8.80
2023-02-13T13:06:15.522Z,8.60
2023-02-13T13:09:18.977Z,8.13
2023-02-13T13:12:11.608Z,9.57
2023-02-13T13:14:50.015Z,9.67
2023-02-13T13:17:37.480Z,8.90
2023-02-13T13:20:23.848Z,9.00
2023-02-13T13:22:57.348Z,10.50
2023-02-13T13:25:33.155Z,9.00
2023-02-13T13:28:07.614Z,9.80
2023-02-13T13:30:39.731Z,11.60
2023-02-13T13:33:17.394Z,11.17
2023-02-13T13:35:54.211Z,10.97
2023-02-13T13:38:31.942Z,10.80
2023-02-13T13:41:07.934Z,14.23
2023-02-13T13:43:51.405Z,10.07
2023-02-13T13:46:26.359Z,9.97
2023-02-13T13:49:25.345Z,9.80
2023-02-13T13:51:53.788Z,9.73
2023-02-13T13:54:53.076Z,10.63
2023-02-13T13:57:26.229Z,10.10
2023-02-13T14:00:32.906Z,10.70
2023-02-13T14:03:26.335Z,10.60
2023-02-13T14:06:08.480Z,10.47
2023-02-13T14:09:37.921Z,11.90
2023-02-13T14:12:41.545Z,10.33
2023-02-13T14:15:50.377Z,11.03
2023-02-13T14:18:27.890Z,9.60
2023-02-13T14:20:59.357Z,9.77
2023-02-13T14:23:50.464Z,10.40
2023-02-13T14:26:34.917Z,10.77
2023-02-13T14:29:28.900Z,11.83
2023-02-13T14:32:27.130Z,13.83
2023-02-13T14:35:01.142Z,14.70
2023-02-13T14:37:40.490Z,10.13
2023-02-13T14:40:45.423Z,11.97
2023-02-13T14:43:35.869Z,10.20
2023-02-13T14:46:11.021Z,10.73
2023-02-13T14:48:46.878Z,10.63
2023-02-13T14:51:28.853Z,10.03
2023-02-13T14:54:02.889Z,11.00
2023-02-13T14:56:33.057Z,10.47
2023-02-13T14:59:12.059Z,9.77
2023-02-13T15:01:53.059Z,9.07
2023-02-13T15:04:40.522Z,9.65
2023-02-13T15:07:26.773Z,9.45
2023-02-13T15:10:01.600Z,10.00
2023-02-13T15:12:35.281Z,10.40
2023-02-13T15:15:25.069Z,12.45
2023-02-13T15:18:03.586Z,17.30
2023-02-13T15:20:37.150Z,11.90
2023-02-13T15:23:09.723Z,9.90
2023-02-13T15:25:40.285Z,10.15
2023-02-13T15:28:20.757Z,10.63
2023-02-13T15:30:56.067Z,10.17
2023-02-13T15:33:27.478Z,10.70
2023-02-13T15:35:58.392Z,11.33
2023-02-13T15:38:32.211Z,11.97
2023-02-13T15:41:05.377Z,11.03
2023-02-13T15:43:37.081Z,11.13
2023-02-13T15:46:08.056Z,11.53
2023-02-13T15:48:36.876Z,10.77
2023-02-13T15:51:05.445Z,11.70
2023-02-13T15:53:35.246Z,10.37
2023-02-13T15:56:05.481Z,9.97
2023-02-13T15:58:36.301Z,10.50
2023-02-13T16:01:08.089Z,11.23
2023-02-13T16:03:37.982Z,9.93
2023-02-13T16:06:09.133Z,19.17
2023-02-13T16:08:46.408Z,12.07
2023-02-13T16:11:42.166Z,13.37
2023-02-13T16:14:21.174Z,11.67
2023-02-13T16:16:53.601Z,10.77
2023-02-13T16:19:30.203Z,14.47
2023-02-13T16:22:01.481Z,14.60
2023-02-13T16:24:32.222Z,12.23
2023-02-13T16:27:00.748Z,11.37
2023-02-13T16:29:28.927Z,12.37
2023-02-13T16:32:05.783Z,12.23
2023-02-13T16:34:33.930Z,13.20
2023-02-13T16:37:02.007Z,12.93
2023-02-13T16:39:33.904Z,12.87
2023-02-13T16:42:02.899Z,11.47
2023-02-13T16:44:32.451Z,11.57
2023-02-13T16:47:02.996Z,12.27
2023-02-13T16:49:34.170Z,14.30
2023-02-13T16:52:12.702Z,12.17
2023-02-13T16:54:56.153Z,11.40
2023-02-13T16:57:30.237Z,13.07
2023-02-13T17:00:15.865Z,15.33
2023-02-13T17:02:44.099Z,12.77
2023-02-13T17:05:22.525Z,13.17
2023-02-13T17:07:55.434Z,11.10
2023-02-13T17:10:27.707Z,11.37
2023-02-13T17:12:58.505Z,12.17
2023-02-13T17:15:28.627Z,12.53
2023-02-13T17:17:56.954Z,13.77
2023-02-13T17:20:27.909Z,15.73
2023-02-13T17:22:58.191Z,23.73
2023-02-13T17:25:29.642Z,14.10
2023-02-13T17:28:01.009Z,13.63
2023-02-13T17:30:32.935Z,17.50
2023-02-13T17:33:07.619Z,15.43
2023-02-13T17:35:37.321Z,17.20
2023-02-13T17:38:10.218Z,14.13
2023-02-13T17:40:41.527Z,16.13
2023-02-13T17:43:13.014Z,14.23
2023-02-13T17:45:41.308Z,14.43
2023-02-13T17:48:09.693Z,14.03
2023-02-13T17:50:38.267Z,14.87
2023-02-13T17:53:10.219Z,15.13
2023-02-13T17:55:42.595Z,16.80
2023-02-13T17:58:11.368Z,14.47
2023-02-13T18:00:40.079Z,15.93
2023-02-13T18:03:09.171Z,14.47
2023-02-13T18:05:39.091Z,20.77
2023-02-13T18:08:07.779Z,18.00
2023-02-13T18:10:38.093Z,18.70
2023-02-13T18:13:08.535Z,18.87
2023-02-13T18:15:42.793Z,18.27
2023-02-13T18:18:13.618Z,21.60
2023-02-13T18:20:50.056Z,20.37
2023-02-13T18:23:31.464Z,17.97
2023-02-13T18:26:12.791Z,23.73
2023-02-13T18:28:44.202Z,18.77
2023-02-13T18:31:17.423Z,19.13
2023-02-13T18:36:57.053Z,25.90
2023-02-13T18:39:27.327Z,23.43
2023-02-13T18:41:57.552Z,20.93
2023-02-13T18:44:29.177Z,20.97
2023-02-13T18:46:57.536Z,16.83
2023-02-13T18:49:26.114Z,18.43
2023-02-13T18:51:54.701Z,22.40
2023-02-13T18:54:24.346Z,17.93
2023-02-13T18:56:53.200Z,19.97
2023-02-13T18:59:22.164Z,17.70
2023-02-13T19:01:52.816Z,20.13
2023-02-13T19:04:20.988Z,18.73
2023-02-13T19:06:48.952Z,17.27
2023-02-13T19:09:16.999Z,16.87
2023-02-13T19:11:45.982Z,17.47
2023-02-13T19:14:15.356Z,19.23
2023-02-13T19:16:43.619Z,17.33
2023-02-13T19:19:13.136Z,19.37
2023-02-13T19:21:41.289Z,17.20
2023-02-13T19:24:10.981Z,18.50
2023-02-13T19:26:39.027Z,18.50
2023-02-13T19:29:07.072Z,19.23
2023-02-13T19:31:35.569Z,18.63
2023-02-13T19:34:05.956Z,17.43
2023-02-13T19:36:35.545Z,18.70
2023-02-13T19:39:06.832Z,19.17
2023-02-13T19:41:35.995Z,19.77
2023-02-13T19:44:05.418Z,19.50
2023-02-13T19:46:34.046Z,19.20
2023-02-13T19:49:03.172Z,26.37
2023-02-13T19:51:32.801Z,28.60
2023-02-13T19:54:04.564Z,21.53
2023-02-13T19:56:36.527Z,26.83
2023-02-13T19:59:05.347Z,20.83
2023-02-13T20:01:33.531Z,19.40
2023-02-13T20:04:01.575Z,19.90
2023-02-13T20:06:33.531Z,20.77
2023-02-13T20:09:06.615Z,19.77
2023-02-13T20:11:34.747Z,19.67
2023-02-13T20:14:04.984Z,20.00
2023-02-13T20:16:36.672Z,18.90
2023-02-13T20:19:09.233Z,19.13
2023-02-13T20:21:37.616Z,18.33
2023-02-13T20:24:07.770Z,17.47
2023-02-13T20:26:38.136Z,18.47
2023-02-13T20:29:06.667Z,18.73
2023-02-13T20:31:35.031Z,19.60
2023-02-13T20:34:07.263Z,19.13
2023-02-13T20:36:50.366Z,19.07
2023-02-13T20:42:41.285Z,21.50
2023-02-13T20:45:10.347Z,24.67
2023-02-13T20:47:38.363Z,19.23
2023-02-13T20:50:07.101Z,28.97
2023-02-13T20:52:35.999Z,26.70
2023-02-13T20:55:04.441Z,22.53
2023-02-13T20:57:34.832Z,32.13
2023-02-13T21:00:06.337Z,23.47
2023-02-13T21:02:36.180Z,21.43
2023-02-13T21:05:05.347Z,22.43
2023-02-13T21:07:35.574Z,19.03
2023-02-13T21:10:05.999Z,19.70
2023-02-13T21:12:35.071Z,17.83
2023-02-13T21:15:05.149Z,18.13
2023-02-13T21:17:34.124Z,18.40
2023-02-13T21:20:02.503Z,20.77
2023-02-13T21:22:31.389Z,19.57
2023-02-13T21:24:59.546Z,23.03
2023-02-13T21:27:28.498Z,21.07
2023-02-13T21:29:57.299Z,19.83
2023-02-13T21:32:27.273Z,20.13
2023-02-13T21:34:56.788Z,18.60
2023-02-13T21:37:24.839Z,19.10
2023-02-13T21:39:52.888Z,19.77
2023-02-13T21:42:21.504Z,19.63
2023-02-13T21:44:49.655Z,19.63
2023-02-13T21:47:18.432Z,19.77
2023-02-13T21:49:49.437Z,20.57
2023-02-13T21:52:18.899Z,21.40
2023-02-13T21:54:49.327Z,19.23
2023-02-13T21:57:20.646Z,20.77
2023-02-13T21:59:48.861Z,19.50
2023-02-13T22:02:17.441Z,19.83
2023-02-13T22:04:46.080Z,20.40
2023-02-13T22:07:15.526Z,23.13
2023-02-13T22:09:43.495Z,22.57
2023-02-13T22:12:11.481Z,23.93
2023-02-13T22:14:39.571Z,22.93
2023-02-13T22:17:07.637Z,21.47
2023-02-13T22:19:35.781Z,21.90
2023-02-13T22:22:03.838Z,24.90
2023-02-13T22:24:33.842Z,23.63
2023-02-13T22:27:03.210Z,24.23
2023-02-13T22:29:31.292Z,23.07
2023-02-13T22:31:59.480Z,23.73
2023-02-13T22:34:27.549Z,24.60
2023-02-13T22:36:55.751Z,24.13
2023-02-13T22:39:23.835Z,23.97
2023-02-13T22:41:56.911Z,22.80
2023-02-13T22:44:24.876Z,24.03
2023-02-13T22:46:52.866Z,23.80
2023-02-13T22:49:20.968Z,25.80
2023-02-13T22:51:48.943Z,23.77
2023-02-13T22:54:17.050Z,25.73
2023-02-13T22:56:45.096Z,32.47
2023-02-13T22:59:14.565Z,26.63
2023-02-13T23:01:42.593Z,25.10
2023-02-13T23:04:10.703Z,25.43
2023-02-13T23:06:38.688Z,24.57
2023-02-13T23:09:08.260Z,23.50
2023-02-13T23:11:53.606Z,24.63
2023-02-13T23:14:26.172Z,25.90
2023-02-13T23:17:11.584Z,24.07
2023-02-13T23:19:39.491Z,28.50
2023-02-13T23:22:07.677Z,27.90
2023-02-13T23:24:35.736Z,25.50
2023-02-13T23:27:03.765Z,32.27
2023-02-13T23:29:33.224Z,25.17
2023-02-13T23:32:01.413Z,28.00
2023-02-13T23:34:29.607Z,28.10
2023-02-13T23:36:57.628Z,26.17
2023-02-13T23:39:25.772Z,27.00
2023-02-13T23:41:54.340Z,27.63
2023-02-13T23:44:22.398Z,25.10
2023-02-13T23:46:51.896Z,27.20
2023-02-13T23:49:21.025Z,27.33
2023-02-13T23:51:49.453Z,25.17
2023-02-13T23:54:18.740Z,25.70
2023-02-13T23:56:47.184Z,25.87
2023-02-13T23:59:16.610Z,28.10
